sensor_id;sensor_type;location;lat;lon;timestamp;pressure;altitude;pressure_sealevel;temperature;humidity
804;BME280;25687;49.976;8.240;2023-08-06T00:00:17;99161.44;;;15.69;100.00
804;BME280;25687;49.976;8.240;2023-08-06T00:02:42;99164.16;;;15.68;100.00
804;BME280;25687;49.976;8.240;2023-08-06T00:05:07;99162.09;;;15.71;100.00
804;BME280;25687;49.976;8.240;2023-08-06T00:07:33;99158.31;;;15.56;100.00
804;BME280;25687;49.976;8.240;2023-08-06T00:09:58;99155.81;;;15.64;100.00
804;BME280;25687;49.976;8.240;2023-08-06T00:12:23;99156.78;;;15.73;100.00
804;BME280;25687;49.976;8.240;2023-08-06T00:14:52;99154.22;;;15.63;100.00
804;BME280;25687;49.976;8.240;2023-08-06T00:17:18;99155.16;;;15.62;100.00
804;BME280;25687;49.976;8.240;2023-08-06T00:19:44;99155.00;;;15.83;100.00
804;BME280;25687;49.976;8.240;2023-08-06T00:22:09;99147.63;;;15.78;100.00
804;BME280;25687;49.976;8.240;2023-08-06T00:24:35;99131.13;;;15.70;100.00
804;BME280;25687;49.976;8.240;2023-08-06T00:27:00;99126.88;;;15.78;100.00
804;BME280;25687;49.976;8.240;2023-08-06T00:29:25;99126.88;;;15.88;100.00
804;BME280;25687;49.976;8.240;2023-08-06T00:31:50;99128.22;;;15.92;100.00
804;BME280;25687;49.976;8.240;2023-08-06T00:34:16;99127.41;;;15.92;100.00
804;BME280;25687;49.976;8.240;2023-08-06T00:36:41;99127.03;;;15.77;100.00
804;BME280;25687;49.976;8.240;2023-08-06T00:39:06;99124.88;;;15.62;100.00
804;BME280;25687;49.976;8.240;2023-08-06T00:41:32;99115.50;;;15.42;100.00
804;BME280;25687;49.976;8.240;2023-08-06T00:43:57;99122.31;;;15.43;100.00
804;BME280;25687;49.976;8.240;2023-08-06T00:46:23;99114.53;;;15.53;100.00
804;BME280;25687;49.976;8.240;2023-08-06T00:48:48;99106.44;;;15.65;100.00
804;BME280;25687;49.976;8.240;2023-08-06T00:51:15;99099.91;;;15.61;100.00
804;BME280;25687;49.976;8.240;2023-08-06T00:53:41;99096.75;;;15.68;100.00
804;BME280;25687;49.976;8.240;2023-08-06T00:56:06;99100.13;;;15.78;100.00
804;BME280;25687;49.976;8.240;2023-08-06T00:58:32;99100.50;;;16.03;100.00
804;BME280;25687;49.976;8.240;2023-08-06T01:00:58;99097.34;;;15.99;100.00
804;BME280;25687;49.976;8.240;2023-08-06T01:03:24;99090.31;;;15.81;100.00
804;BME280;25687;49.976;8.240;2023-08-06T01:05:50;99087.19;;;15.78;100.00
804;BME280;25687;49.976;8.240;2023-08-06T01:13:47;99083.81;;;15.58;100.00
804;BME280;25687;49.976;8.240;2023-08-06T01:16:16;99078.75;;;15.66;100.00
804;BME280;25687;49.976;8.240;2023-08-06T01:18:42;99073.41;;;15.68;100.00
804;BME280;25687;49.976;8.240;2023-08-06T01:21:11;99082.00;;;15.78;100.00
804;BME280;25687;49.976;8.240;2023-08-06T01:23:36;99086.53;;;15.66;100.00
804;BME280;25687;49.976;8.240;2023-08-06T01:26:33;99080.84;;;15.43;100.00
804;BME280;25687;49.976;8.240;2023-08-06T01:29:06;99083.03;;;15.47;100.00
804;BME280;25687;49.976;8.240;2023-08-06T01:31:37;99081.13;;;15.49;100.00
804;BME280;25687;49.976;8.240;2023-08-06T01:34:05;99078.38;;;15.51;100.00
804;BME280;25687;49.976;8.240;2023-08-06T01:36:31;99080.44;;;15.47;100.00
804;BME280;25687;49.976;8.240;2023-08-06T01:38:56;99085.63;;;15.47;100.00
804;BME280;25687;49.976;8.240;2023-08-06T01:41:22;99077.28;;;15.54;100.00
804;BME280;25687;49.976;8.240;2023-08-06T01:43:48;99071.72;;;15.39;100.00
804;BME280;25687;49.976;8.240;2023-08-06T01:46:13;99081.81;;;15.42;100.00
804;BME280;25687;49.976;8.240;2023-08-06T01:48:38;99080.44;;;15.47;100.00
804;BME280;25687;49.976;8.240;2023-08-06T01:51:04;99078.22;;;15.53;100.00
804;BME280;25687;49.976;8.240;2023-08-06T01:53:30;99074.31;;;15.39;100.00
804;BME280;25687;49.976;8.240;2023-08-06T01:55:56;99069.81;;;15.41;100.00
804;BME280;25687;49.976;8.240;2023-08-06T01:58:22;99056.47;;;15.36;100.00
804;BME280;25687;49.976;8.240;2023-08-06T02:00:47;99069.84;;;15.31;100.00
804;BME280;25687;49.976;8.240;2023-08-06T02:03:12;99059.91;;;15.07;100.00
804;BME280;25687;49.976;8.240;2023-08-06T02:05:37;99061.41;;;15.09;100.00
804;BME280;25687;49.976;8.240;2023-08-06T02:08:03;99056.91;;;15.01;100.00
804;BME280;25687;49.976;8.240;2023-08-06T02:10:28;99054.19;;;15.03;100.00
804;BME280;25687;49.976;8.240;2023-08-06T02:12:53;99052.28;;;15.05;100.00
804;BME280;25687;49.976;8.240;2023-08-06T02:15:19;99056.13;;;15.11;100.00
804;BME280;25687;49.976;8.240;2023-08-06T02:17:44;99056.13;;;15.01;100.00
804;BME280;25687;49.976;8.240;2023-08-06T02:20:09;99059.50;;;15.11;100.00
804;BME280;25687;49.976;8.240;2023-08-06T02:22:34;99050.88;;;15.30;100.00
804;BME280;25687;49.976;8.240;2023-08-06T02:25:00;99053.06;;;15.25;100.00
804;BME280;25687;49.976;8.240;2023-08-06T02:27:25;99053.19;;;15.33;100.00
804;BME280;25687;49.976;8.240;2023-08-06T02:29:50;99047.09;;;15.15;100.00
804;BME280;25687;49.976;8.240;2023-08-06T02:32:16;99049.69;;;15.15;100.00
804;BME280;25687;49.976;8.240;2023-08-06T02:34:41;99039.19;;;15.07;100.00
804;BME280;25687;49.976;8.240;2023-08-06T02:37:06;99043.41;;;15.17;100.00
804;BME280;25687;49.976;8.240;2023-08-06T02:39:32;99036.75;;;15.15;100.00
804;BME280;25687;49.976;8.240;2023-08-06T02:41:58;99033.03;;;15.27;100.00
804;BME280;25687;49.976;8.240;2023-08-06T02:44:27;99025.97;;;15.20;100.00
804;BME280;25687;49.976;8.240;2023-08-06T02:46:52;99017.19;;;15.30;100.00
804;BME280;25687;49.976;8.240;2023-08-06T02:49:17;99016.41;;;15.20;100.00
804;BME280;25687;49.976;8.240;2023-08-06T02:51:44;99020.06;;;15.27;100.00
804;BME280;25687;49.976;8.240;2023-08-06T02:54:10;99014.88;;;15.37;100.00
804;BME280;25687;49.976;8.240;2023-08-06T02:56:35;99017.66;;;15.54;100.00
804;BME280;25687;49.976;8.240;2023-08-06T02:59:00;99013.41;;;15.62;100.00
804;BME280;25687;49.976;8.240;2023-08-06T03:01:26;99016.59;;;15.46;100.00
804;BME280;25687;49.976;8.240;2023-08-06T03:03:52;99020.03;;;15.47;100.00
804;BME280;25687;49.976;8.240;2023-08-06T03:06:17;99007.59;;;15.51;100.00
804;BME280;25687;49.976;8.240;2023-08-06T03:08:42;99006.22;;;15.46;100.00
804;BME280;25687;49.976;8.240;2023-08-06T03:11:07;98999.56;;;15.44;100.00
804;BME280;25687;49.976;8.240;2023-08-06T03:13:33;98997.13;;;15.42;100.00
804;BME280;25687;49.976;8.240;2023-08-06T03:15:59;98991.81;;;15.34;100.00
804;BME280;25687;49.976;8.240;2023-08-06T03:18:25;98988.03;;;15.28;100.00
804;BME280;25687;49.976;8.240;2023-08-06T03:20:53;98983.16;;;15.15;100.00
804;BME280;25687;49.976;8.240;2023-08-06T03:23:19;98980.84;;;15.12;100.00
804;BME280;25687;49.976;8.240;2023-08-06T03:25:44;98975.69;;;15.03;100.00
804;BME280;25687;49.976;8.240;2023-08-06T03:28:10;98977.75;;;14.89;100.00
804;BME280;25687;49.976;8.240;2023-08-06T03:30:35;98986.78;;;14.85;100.00
804;BME280;25687;49.976;8.240;2023-08-06T03:33:00;98987.59;;;14.76;100.00
804;BME280;25687;49.976;8.240;2023-08-06T03:35:25;98989.63;;;14.72;100.00
804;BME280;25687;49.976;8.240;2023-08-06T03:37:51;98987.72;;;14.74;100.00
804;BME280;25687;49.976;8.240;2023-08-06T03:40:16;98987.03;;;14.82;100.00
804;BME280;25687;49.976;8.240;2023-08-06T03:42:41;98984.56;;;14.90;100.00
804;BME280;25687;49.976;8.240;2023-08-06T03:45:07;98975.28;;;15.07;100.00
804;BME280;25687;49.976;8.240;2023-08-06T03:47:32;98981.94;;;15.10;100.00
804;BME280;25687;49.976;8.240;2023-08-06T03:49:58;98975.00;;;15.00;100.00
804;BME280;25687;49.976;8.240;2023-08-06T03:52:23;98977.44;;;15.12;100.00
804;BME280;25687;49.976;8.240;2023-08-06T03:54:48;98977.34;;;15.04;100.00
804;BME280;25687;49.976;8.240;2023-08-06T03:57:14;98980.72;;;15.04;100.00
804;BME280;25687;49.976;8.240;2023-08-06T03:59:39;98980.84;;;15.12;100.00
804;BME280;25687;49.976;8.240;2023-08-06T04:02:04;98980.31;;;15.09;100.00
804;BME280;25687;49.976;8.240;2023-08-06T04:04:29;98979.19;;;15.21;100.00
804;BME280;25687;49.976;8.240;2023-08-06T04:06:55;98977.94;;;15.25;100.00
804;BME280;25687;49.976;8.240;2023-08-06T04:09:20;98978.25;;;15.22;100.00
804;BME280;25687;49.976;8.240;2023-08-06T04:11:45;98979.34;;;15.20;100.00
804;BME280;25687;49.976;8.240;2023-08-06T04:14:11;98976.31;;;15.24;100.00
804;BME280;25687;49.976;8.240;2023-08-06T04:16:36;98972.78;;;15.15;100.00
804;BME280;25687;49.976;8.240;2023-08-06T04:19:01;98974.81;;;15.22;100.00
804;BME280;25687;49.976;8.240;2023-08-06T04:21:26;98974.06;;;15.01;100.00
804;BME280;25687;49.976;8.240;2023-08-06T04:23:52;98972.25;;;15.12;100.00
804;BME280;25687;49.976;8.240;2023-08-06T04:26:17;98973.09;;;15.12;100.00
804;BME280;25687;49.976;8.240;2023-08-06T04:28:42;98966.03;;;14.95;100.00
804;BME280;25687;49.976;8.240;2023-08-06T04:31:07;98968.34;;;14.88;100.00
804;BME280;25687;49.976;8.240;2023-08-06T04:33:33;98977.06;;;14.87;100.00
804;BME280;25687;49.976;8.240;2023-08-06T04:35:59;98973.94;;;14.93;100.00
804;BME280;25687;49.976;8.240;2023-08-06T04:38:25;98973.81;;;14.95;100.00
804;BME280;25687;49.976;8.240;2023-08-06T04:40:50;98971.50;;;14.82;100.00
804;BME280;25687;49.976;8.240;2023-08-06T04:43:16;98972.75;;;14.78;100.00
804;BME280;25687;49.976;8.240;2023-08-06T04:45:52;98970.69;;;14.62;100.00
804;BME280;25687;49.976;8.240;2023-08-06T04:48:18;98975.16;;;14.60;100.00
804;BME280;25687;49.976;8.240;2023-08-06T04:50:47;98969.47;;;14.27;100.00
804;BME280;25687;49.976;8.240;2023-08-06T04:53:13;98970.00;;;14.30;100.00
804;BME280;25687;49.976;8.240;2023-08-06T04:55:38;98980.91;;;14.24;100.00
804;BME280;25687;49.976;8.240;2023-08-06T04:58:04;98974.34;;;14.30;100.00
804;BME280;25687;49.976;8.240;2023-08-06T05:00:29;98983.22;;;14.47;100.00
804;BME280;25687;49.976;8.240;2023-08-06T05:02:55;98974.75;;;14.35;100.00
804;BME280;25687;49.976;8.240;2023-08-06T05:05:20;98972.84;;;14.37;100.00
804;BME280;25687;49.976;8.240;2023-08-06T05:07:49;98977.38;;;14.25;100.00
804;BME280;25687;49.976;8.240;2023-08-06T05:10:15;98978.97;;;14.26;100.00
804;BME280;25687;49.976;8.240;2023-08-06T05:12:40;98977.38;;;14.25;100.00
804;BME280;25687;49.976;8.240;2023-08-06T05:15:06;98978.97;;;14.26;100.00
804;BME280;25687;49.976;8.240;2023-08-06T05:17:31;98971.38;;;14.34;100.00
804;BME280;25687;49.976;8.240;2023-08-06T05:19:56;98974.91;;;14.43;100.00
804;BME280;25687;49.976;8.240;2023-08-06T05:22:22;98979.25;;;14.62;100.00
804;BME280;25687;49.976;8.240;2023-08-06T05:24:47;98976.44;;;14.75;100.00
804;BME280;25687;49.976;8.240;2023-08-06T05:27:12;98971.25;;;14.75;100.00
804;BME280;25687;49.976;8.240;2023-08-06T05:29:38;98970.28;;;14.86;100.00
804;BME280;25687;49.976;8.240;2023-08-06T05:32:03;98967.81;;;14.84;100.00
804;BME280;25687;49.976;8.240;2023-08-06T05:34:29;98963.16;;;14.98;100.00
804;BME280;25687;49.976;8.240;2023-08-06T05:36:54;98968.72;;;15.13;100.00
804;BME280;25687;49.976;8.240;2023-08-06T05:39:19;98960.94;;;15.13;100.00
804;BME280;25687;49.976;8.240;2023-08-06T05:41:45;98964.25;;;15.05;100.00
804;BME280;25687;49.976;8.240;2023-08-06T05:44:10;98966.28;;;15.01;100.00
804;BME280;25687;49.976;8.240;2023-08-06T05:46:35;98970.13;;;14.97;100.00
804;BME280;25687;49.976;8.240;2023-08-06T05:49:00;98965.75;;;14.98;100.00
804;BME280;25687;49.976;8.240;2023-08-06T05:51:26;98968.91;;;14.82;100.00
804;BME280;25687;49.976;8.240;2023-08-06T05:53:52;98974.22;;;14.80;100.00
804;BME280;25687;49.976;8.240;2023-08-06T05:56:17;98981.03;;;14.81;100.00
804;BME280;25687;49.976;8.240;2023-08-06T05:58:42;98977.50;;;14.82;100.00
804;BME280;25687;49.976;8.240;2023-08-06T06:01:08;98976.97;;;14.69;100.00
804;BME280;25687;49.976;8.240;2023-08-06T06:03:33;98974.91;;;14.63;100.00
804;BME280;25687;49.976;8.240;2023-08-06T06:06:00;98980.63;;;14.57;100.00
804;BME280;25687;49.976;8.240;2023-08-06T06:08:26;98976.25;;;14.47;100.00
804;BME280;25687;49.976;8.240;2023-08-06T06:10:51;98977.34;;;14.55;100.00
804;BME280;25687;49.976;8.240;2023-08-06T06:13:16;98974.06;;;14.62;100.00
804;BME280;25687;49.976;8.240;2023-08-06T06:15:41;98971.78;;;14.40;100.00
804;BME280;25687;49.976;8.240;2023-08-06T06:18:07;98986.59;;;14.47;100.00
804;BME280;25687;49.976;8.240;2023-08-06T06:20:32;98986.91;;;14.54;100.00
804;BME280;25687;49.976;8.240;2023-08-06T06:22:58;98985.94;;;14.55;100.00
804;BME280;25687;49.976;8.240;2023-08-06T06:25:24;98983.63;;;14.42;100.00
804;BME280;25687;49.976;8.240;2023-08-06T06:27:49;98985.94;;;14.55;100.00
804;BME280;25687;49.976;8.240;2023-08-06T06:30:14;98991.81;;;14.67;100.00
804;BME280;25687;49.976;8.240;2023-08-06T06:32:40;98990.69;;;14.60;100.00
804;BME280;25687;49.976;8.240;2023-08-06T06:35:06;98991.81;;;14.67;100.00
804;BME280;25687;49.976;8.240;2023-08-06T06:37:31;98994.53;;;14.65;100.00
804;BME280;25687;49.976;8.240;2023-08-06T06:39:56;98991.78;;;14.57;100.00
804;BME280;25687;49.976;8.240;2023-08-06T06:42:22;98997.25;;;14.64;100.00
804;BME280;25687;49.976;8.240;2023-08-06T06:44:48;98995.25;;;14.67;100.00
804;BME280;25687;49.976;8.240;2023-08-06T06:47:13;98995.19;;;14.87;100.00
804;BME280;25687;49.976;8.240;2023-08-06T06:49:38;98990.53;;;15.10;100.00
804;BME280;25687;49.976;8.240;2023-08-06T06:52:04;98995.31;;;15.05;100.00
804;BME280;25687;49.976;8.240;2023-08-06T06:54:29;98997.47;;;15.20;100.00
804;BME280;25687;49.976;8.240;2023-08-06T06:56:54;98993.66;;;15.14;100.00
804;BME280;25687;49.976;8.240;2023-08-06T06:59:20;98991.09;;;15.04;100.00
804;BME280;25687;49.976;8.240;2023-08-06T07:01:45;98983.47;;;15.03;100.00
804;BME280;25687;49.976;8.240;2023-08-06T07:04:10;98985.50;;;15.09;100.00
804;BME280;25687;49.976;8.240;2023-08-06T07:06:36;98993.59;;;15.33;100.00
804;BME280;25687;49.976;8.240;2023-08-06T07:09:01;98997.16;;;15.32;100.00
804;BME280;25687;49.976;8.240;2023-08-06T07:11:26;98994.91;;;15.47;100.00
804;BME280;25687;49.976;8.240;2023-08-06T07:13:58;98992.97;;;15.59;100.00
804;BME280;25687;49.976;8.240;2023-08-06T07:16:24;98996.13;;;15.81;100.00
804;BME280;25687;49.976;8.240;2023-08-06T07:18:51;98993.31;;;15.74;100.00
804;BME280;25687;49.976;8.240;2023-08-06T07:21:17;98995.94;;;16.20;100.00
804;BME280;25687;49.976;8.240;2023-08-06T07:23:42;98992.59;;;16.64;100.00
804;BME280;25687;49.976;8.240;2023-08-06T07:26:08;98988.81;;;17.03;100.00
804;BME280;25687;49.976;8.240;2023-08-06T07:28:34;98988.59;;;17.14;100.00
804;BME280;25687;49.976;8.240;2023-08-06T07:30:59;98981.69;;;17.31;100.00
804;BME280;25687;49.976;8.240;2023-08-06T07:33:24;98986.94;;;17.39;100.00
804;BME280;25687;49.976;8.240;2023-08-06T07:35:50;98987.84;;;17.56;100.00
804;BME280;25687;49.976;8.240;2023-08-06T07:38:15;98988.41;;;17.77;100.00
804;BME280;25687;49.976;8.240;2023-08-06T07:40:40;98984.59;;;18.05;100.00
804;BME280;25687;49.976;8.240;2023-08-06T07:43:05;98989.72;;;18.48;100.00
804;BME280;25687;49.976;8.240;2023-08-06T07:45:35;98977.97;;;18.69;100.00
804;BME280;25687;49.976;8.240;2023-08-06T07:48:04;98984.16;;;19.09;100.00
804;BME280;25687;49.976;8.240;2023-08-06T07:50:29;98979.25;;;19.62;100.00
804;BME280;25687;49.976;8.240;2023-08-06T07:52:55;98980.19;;;19.70;100.00
804;BME280;25687;49.976;8.240;2023-08-06T07:55:20;98973.41;;;19.60;100.00
804;BME280;25687;49.976;8.240;2023-08-06T07:57:45;98977.25;;;19.73;100.00
804;BME280;25687;49.976;8.240;2023-08-06T08:00:11;98976.59;;;20.34;100.00
804;BME280;25687;49.976;8.240;2023-08-06T08:02:36;98976.28;;;20.05;100.00
804;BME280;25687;49.976;8.240;2023-08-06T08:05:01;98974.53;;;19.97;100.00
804;BME280;25687;49.976;8.240;2023-08-06T08:07:27;98964.59;;;20.86;100.00
804;BME280;25687;49.976;8.240;2023-08-06T08:09:55;98967.31;;;21.67;100.00
804;BME280;25687;49.976;8.240;2023-08-06T08:12:20;98964.94;;;22.52;100.00
804;BME280;25687;49.976;8.240;2023-08-06T08:14:46;98968.41;;;22.60;100.00
804;BME280;25687;49.976;8.240;2023-08-06T08:17:11;98964.16;;;21.72;100.00
804;BME280;25687;49.976;8.240;2023-08-06T08:19:37;98961.69;;;22.50;100.00
804;BME280;25687;49.976;8.240;2023-08-06T08:22:02;98956.91;;;22.82;100.00
804;BME280;25687;49.976;8.240;2023-08-06T08:24:28;98957.44;;;23.41;100.00
804;BME280;25687;49.976;8.240;2023-08-06T08:26:55;98955.59;;;23.35;100.00
804;BME280;25687;49.976;8.240;2023-08-06T08:29:21;98957.50;;;24.57;100.00
804;BME280;25687;49.976;8.240;2023-08-06T08:31:46;98949.53;;;25.10;94.07
804;BME280;25687;49.976;8.240;2023-08-06T08:34:14;98941.31;;;25.52;96.21
804;BME280;25687;49.976;8.240;2023-08-06T08:36:39;98952.75;;;25.26;95.29
804;BME280;25687;49.976;8.240;2023-08-06T08:39:04;98946.59;;;24.26;97.52
804;BME280;25687;49.976;8.240;2023-08-06T08:41:30;98952.31;;;22.63;100.00
804;BME280;25687;49.976;8.240;2023-08-06T08:43:58;98954.19;;;22.97;100.00
804;BME280;25687;49.976;8.240;2023-08-06T08:46:24;98946.38;;;23.46;100.00
804;BME280;25687;49.976;8.240;2023-08-06T08:48:51;98950.31;;;23.83;100.00
804;BME280;25687;49.976;8.240;2023-08-06T08:51:16;98945.25;;;23.27;100.00
804;BME280;25687;49.976;8.240;2023-08-06T08:53:44;98945.75;;;23.44;100.00
804;BME280;25687;49.976;8.240;2023-08-06T08:56:11;98948.81;;;23.12;100.00
804;BME280;25687;49.976;8.240;2023-08-06T08:58:37;98943.13;;;22.02;100.00
804;BME280;25687;49.976;8.240;2023-08-06T09:01:03;98945.28;;;21.47;100.00
804;BME280;25687;49.976;8.240;2023-08-06T09:03:29;98954.97;;;21.16;100.00
804;BME280;25687;49.976;8.240;2023-08-06T09:05:56;98953.19;;;20.40;100.00
804;BME280;25687;49.976;8.240;2023-08-06T09:08:26;98957.44;;;19.55;100.00
804;BME280;25687;49.976;8.240;2023-08-06T09:10:53;98952.56;;;19.04;100.00
804;BME280;25687;49.976;8.240;2023-08-06T09:13:18;98953.06;;;19.08;100.00
804;BME280;25687;49.976;8.240;2023-08-06T09:15:45;98954.53;;;18.77;100.00
804;BME280;25687;49.976;8.240;2023-08-06T09:18:11;98966.25;;;18.65;100.00
804;BME280;25687;49.976;8.240;2023-08-06T09:20:39;98954.41;;;18.46;100.00
804;BME280;25687;49.976;8.240;2023-08-06T09:23:08;98947.78;;;19.16;100.00
804;BME280;25687;49.976;8.240;2023-08-06T09:25:37;98952.16;;;19.32;100.00
804;BME280;25687;49.976;8.240;2023-08-06T09:28:03;98952.44;;;19.77;100.00
804;BME280;25687;49.976;8.240;2023-08-06T09:30:32;98954.69;;;19.48;100.00
804;BME280;25687;49.976;8.240;2023-08-06T09:32:58;98954.38;;;19.43;100.00
804;BME280;25687;49.976;8.240;2023-08-06T09:35:24;98955.06;;;20.08;100.00
804;BME280;25687;49.976;8.240;2023-08-06T09:37:49;98948.84;;;20.94;100.00
804;BME280;25687;49.976;8.240;2023-08-06T09:40:28;98954.88;;;21.24;100.00
804;BME280;25687;49.976;8.240;2023-08-06T09:42:55;98956.75;;;21.60;100.00
804;BME280;25687;49.976;8.240;2023-08-06T09:45:20;98970.47;;;21.33;100.00
804;BME280;25687;49.976;8.240;2023-08-06T09:47:50;98953.59;;;20.90;100.00
804;BME280;25687;49.976;8.240;2023-08-06T09:50:19;98959.00;;;20.89;100.00
804;BME280;25687;49.976;8.240;2023-08-06T09:52:45;98956.88;;;21.07;100.00
804;BME280;25687;49.976;8.240;2023-08-06T09:55:12;98959.47;;;20.54;100.00
804;BME280;25687;49.976;8.240;2023-08-06T09:57:37;98960.47;;;20.68;100.00
804;BME280;25687;49.976;8.240;2023-08-06T10:00:03;98959.53;;;20.84;100.00
804;BME280;25687;49.976;8.240;2023-08-06T10:02:30;98950.03;;;22.09;100.00
804;BME280;25687;49.976;8.240;2023-08-06T10:04:57;98959.72;;;23.58;100.00
804;BME280;25687;49.976;8.240;2023-08-06T10:07:22;98961.31;;;24.61;99.89
804;BME280;25687;49.976;8.240;2023-08-06T10:09:49;98962.22;;;25.86;86.62
804;BME280;25687;49.976;8.240;2023-08-06T10:12:15;98970.72;;;26.26;82.85
804;BME280;25687;49.976;8.240;2023-08-06T10:14:43;98979.13;;;25.71;88.08
804;BME280;25687;49.976;8.240;2023-08-06T10:17:09;98976.84;;;24.02;92.46
804;BME280;25687;49.976;8.240;2023-08-06T10:19:35;98979.72;;;24.41;96.11
804;BME280;25687;49.976;8.240;2023-08-06T10:24:56;98971.75;;;26.76;74.17
804;BME280;25687;49.976;8.240;2023-08-06T10:27:30;98972.69;;;27.75;63.06
804;BME280;25687;49.976;8.240;2023-08-06T10:33:04;98971.16;;;29.11;54.31
804;BME280;25687;49.976;8.240;2023-08-06T10:35:46;98981.63;;;28.34;58.71
804;BME280;25687;49.976;8.240;2023-08-06T10:38:21;98978.88;;;27.13;66.44
804;BME280;25687;49.976;8.240;2023-08-06T10:43:32;98984.28;;;22.51;100.00
804;BME280;25687;49.976;8.240;2023-08-06T10:46:01;98994.78;;;20.88;100.00
804;BME280;25687;49.976;8.240;2023-08-06T10:51:11;99000.03;;;20.19;100.00
804;BME280;25687;49.976;8.240;2023-08-06T10:53:37;98998.13;;;20.04;100.00
804;BME280;25687;49.976;8.240;2023-08-06T10:56:12;99002.69;;;19.71;100.00
804;BME280;25687;49.976;8.240;2023-08-06T10:58:38;99001.16;;;19.93;100.00
804;BME280;25687;49.976;8.240;2023-08-06T11:01:03;99003.34;;;20.36;100.00
804;BME280;25687;49.976;8.240;2023-08-06T11:03:28;98998.00;;;19.66;100.00
804;BME280;25687;49.976;8.240;2023-08-06T11:05:54;99031.16;;;19.32;100.00
804;BME280;25687;49.976;8.240;2023-08-06T11:08:26;99039.50;;;18.53;100.00
804;BME280;25687;49.976;8.240;2023-08-06T11:10:52;99035.88;;;18.38;100.00
804;BME280;25687;49.976;8.240;2023-08-06T11:13:18;99053.78;;;18.25;100.00
804;BME280;25687;49.976;8.240;2023-08-06T11:15:44;99062.22;;;18.27;100.00
804;BME280;25687;49.976;8.240;2023-08-06T11:18:10;99047.59;;;18.34;100.00
804;BME280;25687;49.976;8.240;2023-08-06T11:20:36;99065.09;;;17.99;100.00
804;BME280;25687;49.976;8.240;2023-08-06T11:23:01;99062.69;;;18.14;100.00
804;BME280;25687;49.976;8.240;2023-08-06T11:25:26;99072.63;;;18.27;100.00
804;BME280;25687;49.976;8.240;2023-08-06T11:27:52;99079.81;;;18.33;100.00
804;BME280;25687;49.976;8.240;2023-08-06T11:30:18;99087.25;;;18.11;100.00
804;BME280;25687;49.976;8.240;2023-08-06T11:32:47;99075.06;;;17.51;100.00
804;BME280;25687;49.976;8.240;2023-08-06T11:35:13;99102.59;;;17.35;100.00
804;BME280;25687;49.976;8.240;2023-08-06T11:37:43;99088.56;;;17.28;100.00
804;BME280;25687;49.976;8.240;2023-08-06T11:40:09;99089.19;;;17.22;100.00
804;BME280;25687;49.976;8.240;2023-08-06T11:42:36;99092.16;;;17.09;100.00
804;BME280;25687;49.976;8.240;2023-08-06T11:45:02;99098.09;;;17.01;100.00
804;BME280;25687;49.976;8.240;2023-08-06T11:47:29;99107.53;;;17.02;100.00
804;BME280;25687;49.976;8.240;2023-08-06T11:49:55;99110.13;;;17.02;100.00
804;BME280;25687;49.976;8.240;2023-08-06T11:52:22;99113.47;;;16.94;100.00
804;BME280;25687;49.976;8.240;2023-08-06T11:55:03;99115.94;;;16.68;100.00
804;BME280;25687;49.976;8.240;2023-08-06T11:57:30;99116.56;;;16.80;100.00
804;BME280;25687;49.976;8.240;2023-08-06T12:00:04;99131.78;;;17.29;100.00
804;BME280;25687;49.976;8.240;2023-08-06T12:02:31;99122.22;;;17.56;100.00
804;BME280;25687;49.976;8.240;2023-08-06T12:05:03;99134.16;;;17.67;100.00
804;BME280;25687;49.976;8.240;2023-08-06T12:07:31;99137.88;;;17.64;100.00
804;BME280;25687;49.976;8.240;2023-08-06T12:09:56;99123.72;;;17.93;100.00
804;BME280;25687;49.976;8.240;2023-08-06T12:12:23;99133.84;;;17.96;100.00
804;BME280;25687;49.976;8.240;2023-08-06T12:14:48;99146.88;;;17.78;100.00
804;BME280;25687;49.976;8.240;2023-08-06T12:17:13;99151.34;;;18.12;100.00
804;BME280;25687;49.976;8.240;2023-08-06T12:19:39;99138.00;;;18.15;100.00
804;BME280;25687;49.976;8.240;2023-08-06T12:22:04;99143.84;;;18.52;100.00
804;BME280;25687;49.976;8.240;2023-08-06T12:24:29;99144.44;;;18.37;100.00
804;BME280;25687;49.976;8.240;2023-08-06T12:26:57;99146.59;;;18.08;100.00
804;BME280;25687;49.976;8.240;2023-08-06T12:29:22;99157.03;;;17.89;100.00
804;BME280;25687;49.976;8.240;2023-08-06T12:31:48;99156.94;;;17.73;100.00
804;BME280;25687;49.976;8.240;2023-08-06T12:34:13;99166.81;;;17.25;100.00
804;BME280;25687;49.976;8.240;2023-08-06T12:36:39;99168.91;;;17.39;100.00
804;BME280;25687;49.976;8.240;2023-08-06T12:39:04;99166.00;;;17.06;100.00
804;BME280;25687;49.976;8.240;2023-08-06T12:41:29;99172.28;;;16.86;100.00
804;BME280;25687;49.976;8.240;2023-08-06T12:43:54;99178.28;;;16.86;100.00
804;BME280;25687;49.976;8.240;2023-08-06T12:46:20;99173.56;;;16.54;100.00
804;BME280;25687;49.976;8.240;2023-08-06T12:48:45;99189.09;;;16.36;100.00
804;BME280;25687;49.976;8.240;2023-08-06T12:51:10;99195.03;;;16.18;100.00
804;BME280;25687;49.976;8.240;2023-08-06T12:53:36;99196.84;;;16.08;100.00
804;BME280;25687;49.976;8.240;2023-08-06T12:56:01;99199.72;;;15.95;100.00
804;BME280;25687;49.976;8.240;2023-08-06T12:58:26;99211.22;;;15.82;100.00
804;BME280;25687;49.976;8.240;2023-08-06T13:00:52;99209.06;;;15.68;100.00
804;BME280;25687;49.976;8.240;2023-08-06T13:03:17;99213.81;;;15.73;100.00
804;BME280;25687;49.976;8.240;2023-08-06T13:05:42;99215.44;;;15.74;100.00
804;BME280;25687;49.976;8.240;2023-08-06T13:08:09;99231.69;;;15.86;100.00
804;BME280;25687;49.976;8.240;2023-08-06T13:10:34;99223.50;;;15.71;100.00
804;BME280;25687;49.976;8.240;2023-08-06T13:12:59;99226.78;;;15.82;100.00
804;BME280;25687;49.976;8.240;2023-08-06T13:15:24;99230.59;;;15.88;100.00
804;BME280;25687;49.976;8.240;2023-08-06T13:17:50;99224.88;;;15.85;100.00
804;BME280;25687;49.976;8.240;2023-08-06T13:20:15;99218.56;;;15.97;100.00
804;BME280;25687;49.976;8.240;2023-08-06T13:22:40;99234.25;;;16.15;100.00